This is the latest recevied weather packets stored in our database for station/object N4ZIQ. If no packets are shown the sender has not sent any weather packets the latest 10 day(s).
| Time | Temp. | Humidity | Pressure | Rain* | Wind** | Luminosity | Snow |
|---|---|---|---|---|---|---|---|
| 1778256953 | 30° C | 63% | 1015.9 hPa | 0 mm | - | 953 W/m² | - |
| 1778256645 | 30° C | 64% | 1015.9 hPa | 0 mm | - | 918 W/m² | - |
| 1778256345 | 29.44° C | 64% | 1015.9 hPa | 0 mm | - | 193 W/m² | - |
| 1778256052 | 30.56° C | 64% | 1015.9 hPa | 0 mm | - | 981 W/m² | - |
| 1778255745 | 30° C | 67% | 1016 hPa | 0 mm | - | 969 W/m² | - |
| 1778255445 | 30° C | 63% | 1016 hPa | 0 mm | - | 211 W/m² | - |
| 1778255156 | 30° C | 67% | 1016.1 hPa | 0 mm | - | 923 W/m² | - |
| 1778254845 | 29.44° C | 67% | 1016.1 hPa | 0 mm | - | 853 W/m² | - |
| 1778254545 | 29.44° C | 67% | 1016.1 hPa | 0 mm | - | 819 W/m² | - |
| 1778254259 | 28.89° C | 69% | 1016.2 hPa | 0 mm | - | 186 W/m² | - |
| 1778253945 | 28.89° C | 70% | 1016.3 hPa | 0 mm | - | 186 W/m² | - |
| 1778253645 | 28.89° C | 72% | 1016.3 hPa | 0 mm | - | 888 W/m² | - |
| 1778253364 | 28.33° C | 72% | 1016.3 hPa | 0 mm | - | 786 W/m² | - |
| 1778253044 | 28.33° C | 73% | 1016.3 hPa | 0 mm | - | 174 W/m² | - |
| 1778252746 | 28.89° C | 70% | 1016.4 hPa | 0 mm | - | 868 W/m² | - |
| 1778252455 | 28.89° C | 72% | 1016.3 hPa | 0 mm | - | 831 W/m² | - |
| 1778252145 | 27.78° C | 74% | 1016.4 hPa | 0 mm | - | 742 W/m² | - |
| 1778251847 | 27.22° C | 76% | 1016.2 hPa | 0 mm | - | 176 W/m² | - |
| 1778251552 | 27.22° C | 75% | 1016.3 hPa | 0 mm | - | 190 W/m² | - |
| 1778251248 | 28.33° C | 74% | 1016.2 hPa | 0 mm | - | 248 W/m² | - |
| 1778250949 | 28.89° C | 74% | 1016.1 hPa | 0 mm | - | 686 W/m² | - |
| 1778250661 | 28.33° C | 74% | 1016.2 hPa | 0 mm | - | 733 W/m² | - |
| 1778250345 | 27.78° C | 77% | 1016.2 hPa | 0 mm | - | 744 W/m² | - |
| 1778250049 | 27.22° C | 79% | 1016.2 hPa | 0 mm | - | 267 W/m² | - |
| 1778249760 | 27.22° C | 79% | 1016.3 hPa | 0 mm | - | 330 W/m² | - |
* Rain latest hour (hover to see other rain measurements)
** Current wind speed in m/s (hover to see current wind gust speed)